sensor_id;sensor_type;location;lat;lon;timestamp;pressure;altitude;pressure_sealevel;temperature;humidity
22649;BME280;11491;41.942;24.220;2023-03-15T00:02:18;88960.94;;;0.88;74.42
22649;BME280;11491;41.942;24.220;2023-03-15T00:04:46;88948.09;;;0.95;73.92
22649;BME280;11491;41.942;24.220;2023-03-15T00:07:13;88947.47;;;0.98;73.77
22649;BME280;11491;41.942;24.220;2023-03-15T00:09:39;88939.59;;;0.90;74.05
22649;BME280;11491;41.942;24.220;2023-03-15T00:12:07;88938.22;;;1.10;73.74
22649;BME280;11491;41.942;24.220;2023-03-15T00:14:35;88932.28;;;0.78;74.55
22649;BME280;11491;41.942;24.220;2023-03-15T00:17:02;88927.66;;;0.75;75.23
22649;BME280;11491;41.942;24.220;2023-03-15T00:19:28;88921.16;;;0.81;74.76
22649;BME280;11491;41.942;24.220;2023-03-15T00:21:55;88921.00;;;0.77;74.64
22649;BME280;11491;41.942;24.220;2023-03-15T00:24:22;88913.41;;;0.76;74.72
22649;BME280;11491;41.942;24.220;2023-03-15T00:26:49;88906.44;;;0.89;74.23
22649;BME280;11491;41.942;24.220;2023-03-15T00:29:15;88910.63;;;0.81;74.37
22649;BME280;11491;41.942;24.220;2023-03-15T00:31:43;88914.66;;;0.70;75.13
22649;BME280;11491;41.942;24.220;2023-03-15T00:34:10;88910.75;;;0.84;74.88
22649;BME280;11491;41.942;24.220;2023-03-15T00:36:38;88901.50;;;0.70;74.87
22649;BME280;11491;41.942;24.220;2023-03-15T00:39:08;88907.69;;;0.91;74.78
22649;BME280;11491;41.942;24.220;2023-03-15T00:41:34;88903.81;;;0.97;73.71
22649;BME280;11491;41.942;24.220;2023-03-15T00:44:01;88903.19;;;1.00;73.34
22649;BME280;11491;41.942;24.220;2023-03-15T00:46:28;88891.09;;;0.73;73.70
22649;BME280;11491;41.942;24.220;2023-03-15T00:48:57;88898.38;;;0.76;74.31
22649;BME280;11491;41.942;24.220;2023-03-15T00:51:23;88891.72;;;0.61;75.03
22649;BME280;11491;41.942;24.220;2023-03-15T00:53:52;88895.44;;;0.60;75.37
22649;BME280;11491;41.942;24.220;2023-03-15T00:56:20;88883.81;;;0.61;75.20
22649;BME280;11491;41.942;24.220;2023-03-15T00:58:47;88885.56;;;0.75;74.43
22649;BME280;11491;41.942;24.220;2023-03-15T01:01:16;88877.34;;;0.85;73.70
22649;BME280;11491;41.942;24.220;2023-03-15T01:03:44;88863.25;;;0.63;74.58
22649;BME280;11491;41.942;24.220;2023-03-15T01:06:14;88861.41;;;0.73;74.37
22649;BME280;11491;41.942;24.220;2023-03-15T01:08:42;88852.56;;;0.69;73.47
22649;BME280;11491;41.942;24.220;2023-03-15T01:11:11;88869.59;;;0.80;73.05
22649;BME280;11491;41.942;24.220;2023-03-15T01:13:39;88855.19;;;0.51;74.11
22649;BME280;11491;41.942;24.220;2023-03-15T01:16:07;88861.84;;;0.49;74.69
22649;BME280;11491;41.942;24.220;2023-03-15T01:18:35;88859.81;;;0.54;74.70
22649;BME280;11491;41.942;24.220;2023-03-15T01:21:04;88848.22;;;0.47;74.77
22649;BME280;11491;41.942;24.220;2023-03-15T01:23:32;88857.50;;;0.61;74.61
22649;BME280;11491;41.942;24.220;2023-03-15T01:25:59;88850.38;;;0.62;74.63
22649;BME280;11491;41.942;24.220;2023-03-15T01:28:26;88850.41;;;0.53;73.73
22649;BME280;11491;41.942;24.220;2023-03-15T01:30:53;88853.97;;;0.57;74.45
22649;BME280;11491;41.942;24.220;2023-03-15T01:33:20;88850.88;;;0.55;73.81
22649;BME280;11491;41.942;24.220;2023-03-15T01:35:48;88843.56;;;0.26;75.18
22649;BME280;11491;41.942;24.220;2023-03-15T01:38:23;88848.34;;;0.15;75.68
22649;BME280;11491;41.942;24.220;2023-03-15T01:40:51;88851.72;;;0.25;76.02
22649;BME280;11491;41.942;24.220;2023-03-15T01:43:19;88854.53;;;0.37;75.82
22649;BME280;11491;41.942;24.220;2023-03-15T01:45:58;88855.94;;;0.34;75.56
22649;BME280;11491;41.942;24.220;2023-03-15T01:48:29;88846.22;;;0.35;75.33
22649;BME280;11491;41.942;24.220;2023-03-15T01:50:59;88842.78;;;0.34;75.56
22649;BME280;11491;41.942;24.220;2023-03-15T01:53:29;88844.03;;;0.37;75.38
22649;BME280;11491;41.942;24.220;2023-03-15T01:56:00;88840.03;;;0.48;75.07
22649;BME280;11491;41.942;24.220;2023-03-15T01:58:27;88840.03;;;0.48;74.68
22649;BME280;11491;41.942;24.220;2023-03-15T02:00:54;88830.59;;;0.56;73.77
22649;BME280;11491;41.942;24.220;2023-03-15T02:03:24;88824.38;;;0.34;74.89
22649;BME280;11491;41.942;24.220;2023-03-15T02:05:56;88822.06;;;0.33;75.48
22649;BME280;11491;41.942;24.220;2023-03-15T02:08:27;88818.03;;;0.44;74.63
22649;BME280;11491;41.942;24.220;2023-03-15T02:11:00;88816.81;;;0.50;74.29
22649;BME280;11491;41.942;24.220;2023-03-15T02:13:29;88816.03;;;0.41;74.94
22649;BME280;11491;41.942;24.220;2023-03-15T02:15:56;88823.28;;;0.27;75.33
22649;BME280;11491;41.942;24.220;2023-03-15T02:18:24;88801.03;;;0.15;75.81
22649;BME280;11491;41.942;24.220;2023-03-15T02:20:58;88816.94;;;0.19;76.63
22649;BME280;11491;41.942;24.220;2023-03-15T02:23:28;88811.53;;;0.15;76.78
22649;BME280;11491;41.942;24.220;2023-03-15T02:26:03;88797.94;;;0.31;76.52
22649;BME280;11491;41.942;24.220;2023-03-15T02:28:32;88792.22;;;0.46;76.11
22649;BME280;11491;41.942;24.220;2023-03-15T02:30:59;88788.66;;;0.42;76.12
22649;BME280;11491;41.942;24.220;2023-03-15T02:33:29;88792.69;;;0.48;76.32
22649;BME280;11491;41.942;24.220;2023-03-15T02:36:06;88790.19;;;0.52;76.52
22649;BME280;11491;41.942;24.220;2023-03-15T02:38:33;88794.53;;;0.56;76.22
22649;BME280;11491;41.942;24.220;2023-03-15T02:41:00;88780.59;;;0.64;76.48
22649;BME280;11491;41.942;24.220;2023-03-15T02:43:28;88786.94;;;0.81;75.32
22649;BME280;11491;41.942;24.220;2023-03-15T02:45:58;88770.84;;;0.74;75.13
22649;BME280;11491;41.942;24.220;2023-03-15T02:48:25;88763.59;;;0.71;75.91
22649;BME280;11491;41.942;24.220;2023-03-15T02:50:52;88771.63;;;0.66;76.54
22649;BME280;11491;41.942;24.220;2023-03-15T02:53:19;88756.81;;;0.52;76.92
22649;BME280;11491;41.942;24.220;2023-03-15T02:55:46;88764.53;;;0.57;76.80
22649;BME280;11491;41.942;24.220;2023-03-15T02:58:13;88756.78;;;0.70;75.26
22649;BME280;11491;41.942;24.220;2023-03-15T03:00:39;88759.72;;;0.68;75.09
22649;BME280;11491;41.942;24.220;2023-03-15T03:03:08;88761.56;;;0.59;75.49
22649;BME280;11491;41.942;24.220;2023-03-15T03:05:36;88758.81;;;0.55;75.54
22649;BME280;11491;41.942;24.220;2023-03-15T03:08:03;88756.50;;;0.45;76.65
22649;BME280;11491;41.942;24.220;2023-03-15T03:10:29;88755.41;;;0.37;76.73
22649;BME280;11491;41.942;24.220;2023-03-15T03:12:56;88752.16;;;0.32;76.63
22649;BME280;11491;41.942;24.220;2023-03-15T03:15:23;88756.81;;;0.35;77.50
22649;BME280;11491;41.942;24.220;2023-03-15T03:17:50;88749.38;;;0.11;78.27
22649;BME280;11491;41.942;24.220;2023-03-15T03:20:20;88741.63;;;0.14;78.04
22649;BME280;11491;41.942;24.220;2023-03-15T03:22:46;88737.13;;;0.15;77.66
22649;BME280;11491;41.942;24.220;2023-03-15T03:25:13;88737.94;;;0.33;77.44
22649;BME280;11491;41.942;24.220;2023-03-15T03:27:40;88750.91;;;0.38;77.66
22649;BME280;11491;41.942;24.220;2023-03-15T03:30:10;88740.88;;;0.40;77.28
22649;BME280;11491;41.942;24.220;2023-03-15T03:32:38;88735.47;;;0.45;76.88
22649;BME280;11491;41.942;24.220;2023-03-15T03:35:06;88749.34;;;0.54;76.76
22649;BME280;11491;41.942;24.220;2023-03-15T03:37:34;88730.78;;;0.07;78.15
22649;BME280;11491;41.942;24.220;2023-03-15T03:40:01;88736.69;;;0.04;79.01
22649;BME280;11491;41.942;24.220;2023-03-15T03:42:31;88733.75;;;0.23;78.36
22649;BME280;11491;41.942;24.220;2023-03-15T03:44:57;88730.66;;;0.30;77.16
22649;BME280;11491;41.942;24.220;2023-03-15T03:47:24;88730.34;;;0.40;77.97
22649;BME280;11491;41.942;24.220;2023-03-15T03:49:51;88727.09;;;0.26;78.04
22649;BME280;11491;41.942;24.220;2023-03-15T03:52:18;88721.84;;;0.43;77.27
22649;BME280;11491;41.942;24.220;2023-03-15T03:54:46;88722.44;;;0.49;77.96
22649;BME280;11491;41.942;24.220;2023-03-15T03:57:13;88723.69;;;0.42;77.64
22649;BME280;11491;41.942;24.220;2023-03-15T03:59:40;88722.72;;;0.64;77.18
22649;BME280;11491;41.942;24.220;2023-03-15T04:02:06;88721.50;;;0.71;76.22
22649;BME280;11491;41.942;24.220;2023-03-15T04:04:33;88707.88;;;0.69;76.01
22649;BME280;11491;41.942;24.220;2023-03-15T04:07:00;88723.19;;;0.75;75.94
22649;BME280;11491;41.942;24.220;2023-03-15T04:09:27;88721.19;;;0.63;77.04
22649;BME280;11491;41.942;24.220;2023-03-15T04:11:55;88711.91;;;0.75;76.54
22649;BME280;11491;41.942;24.220;2023-03-15T04:14:22;88708.28;;;0.88;75.64
22649;BME280;11491;41.942;24.220;2023-03-15T04:16:49;88721.81;;;0.60;75.80
22649;BME280;11491;41.942;24.220;2023-03-15T04:19:16;88709.47;;;0.35;77.59
22649;BME280;11491;41.942;24.220;2023-03-15T04:21:43;88707.44;;;0.49;77.52
22649;BME280;11491;41.942;24.220;2023-03-15T04:24:12;88710.56;;;0.42;77.30
22649;BME280;11491;41.942;24.220;2023-03-15T04:26:39;88708.22;;;0.41;78.04
22649;BME280;11491;41.942;24.220;2023-03-15T04:29:09;88704.81;;;0.49;78.35
22649;BME280;11491;41.942;24.220;2023-03-15T04:31:38;88703.09;;;0.45;78.16
22649;BME280;11491;41.942;24.220;2023-03-15T04:34:07;88708.06;;;0.55;78.71
22649;BME280;11491;41.942;24.220;2023-03-15T04:36:34;88716.56;;;0.60;78.14
22649;BME280;11491;41.942;24.220;2023-03-15T04:39:01;88702.00;;;0.54;78.12
22649;BME280;11491;41.942;24.220;2023-03-15T04:41:31;88703.88;;;0.62;78.73
22649;BME280;11491;41.942;24.220;2023-03-15T04:43:59;88701.06;;;0.68;77.71
22649;BME280;11491;41.942;24.220;2023-03-15T04:46:27;88699.00;;;0.91;77.11
22649;BME280;11491;41.942;24.220;2023-03-15T04:48:54;88703.44;;;0.99;76.19
22649;BME280;11491;41.942;24.220;2023-03-15T04:51:20;88709.06;;;0.97;76.01
22649;BME280;11491;41.942;24.220;2023-03-15T04:53:47;88707.22;;;0.80;76.92
22649;BME280;11491;41.942;24.220;2023-03-15T04:56:14;88709.69;;;0.85;76.40
22649;BME280;11491;41.942;24.220;2023-03-15T04:58:41;88714.50;;;0.83;76.92
22649;BME280;11491;41.942;24.220;2023-03-15T05:01:07;88709.22;;;0.83;77.45
22649;BME280;11491;41.942;24.220;2023-03-15T05:03:35;88712.31;;;0.85;77.49
22649;BME280;11491;41.942;24.220;2023-03-15T05:06:02;88703.34;;;0.86;77.13
22649;BME280;11491;41.942;24.220;2023-03-15T05:08:32;88710.09;;;1.05;76.65
22649;BME280;11491;41.942;24.220;2023-03-15T05:10:59;88712.06;;;1.17;76.12
22649;BME280;11491;41.942;24.220;2023-03-15T05:13:26;88716.44;;;1.13;76.51
22649;BME280;11491;41.942;24.220;2023-03-15T05:15:52;88717.31;;;1.17;77.07
22649;BME280;11491;41.942;24.220;2023-03-15T05:18:19;88714.53;;;1.22;76.84
22649;BME280;11491;41.942;24.220;2023-03-15T05:20:47;88704.00;;;1.22;77.15
22649;BME280;11491;41.942;24.220;2023-03-15T05:23:14;88713.56;;;1.35;76.56
22649;BME280;11491;41.942;24.220;2023-03-15T05:25:41;88708.34;;;1.56;76.01
22649;BME280;11491;41.942;24.220;2023-03-15T05:28:08;88704.84;;;1.73;74.83
22649;BME280;11491;41.942;24.220;2023-03-15T05:30:35;88699.56;;;1.73;74.55
22649;BME280;11491;41.942;24.220;2023-03-15T05:33:04;88702.94;;;1.53;75.77
22649;BME280;11491;41.942;24.220;2023-03-15T05:35:31;88696.38;;;1.59;76.36
22649;BME280;11491;41.942;24.220;2023-03-15T05:37:59;88699.47;;;1.61;76.04
22649;BME280;11491;41.942;24.220;2023-03-15T05:40:25;88699.28;;;1.36;77.28
22649;BME280;11491;41.942;24.220;2023-03-15T05:42:54;88690.91;;;1.34;77.79
22649;BME280;11491;41.942;24.220;2023-03-15T05:45:21;88688.38;;;1.46;78.28
22649;BME280;11491;41.942;24.220;2023-03-15T05:47:48;88686.75;;;1.63;78.21
22649;BME280;11491;41.942;24.220;2023-03-15T05:50:15;88680.75;;;1.83;78.03
22649;BME280;11491;41.942;24.220;2023-03-15T05:52:42;88682.66;;;2.04;77.17
22649;BME280;11491;41.942;24.220;2023-03-15T05:55:10;88686.22;;;2.20;76.07
22649;BME280;11491;41.942;24.220;2023-03-15T05:57:36;88673.28;;;2.27;75.84
22649;BME280;11491;41.942;24.220;2023-03-15T06:00:04;88668.28;;;2.34;76.18
22649;BME280;11491;41.942;24.220;2023-03-15T06:02:33;88653.81;;;2.53;75.79
22649;BME280;11491;41.942;24.220;2023-03-15T06:05:00;88658.69;;;2.63;74.48
22649;BME280;11491;41.942;24.220;2023-03-15T06:07:27;88647.31;;;2.71;73.99
22649;BME280;11491;41.942;24.220;2023-03-15T06:09:53;88643.34;;;2.77;73.63
22649;BME280;11491;41.942;24.220;2023-03-15T06:12:21;88650.19;;;2.78;73.66
22649;BME280;11491;41.942;24.220;2023-03-15T06:14:48;88653.38;;;2.84;74.01
22649;BME280;11491;41.942;24.220;2023-03-15T06:17:15;88649.81;;;2.68;75.21
22649;BME280;11491;41.942;24.220;2023-03-15T06:19:42;88655.69;;;2.98;75.31
22649;BME280;11491;41.942;24.220;2023-03-15T06:22:09;88654.88;;;3.18;74.96
22649;BME280;11491;41.942;24.220;2023-03-15T06:24:36;88654.44;;;3.41;74.16
22649;BME280;11491;41.942;24.220;2023-03-15T06:27:03;88661.72;;;3.56;73.73
22649;BME280;11491;41.942;24.220;2023-03-15T06:29:31;88665.22;;;3.73;73.13
22649;BME280;11491;41.942;24.220;2023-03-15T06:31:58;88667.84;;;3.85;72.76
22649;BME280;11491;41.942;24.220;2023-03-15T06:34:25;88666.50;;;4.03;72.45
22649;BME280;11491;41.942;24.220;2023-03-15T06:36:51;88662.16;;;4.23;72.27
22649;BME280;11491;41.942;24.220;2023-03-15T06:39:18;88668.63;;;4.38;72.52
22649;BME280;11491;41.942;24.220;2023-03-15T06:41:45;88671.91;;;4.47;73.18
22649;BME280;11491;41.942;24.220;2023-03-15T06:44:12;88679.47;;;4.61;72.96
22649;BME280;11491;41.942;24.220;2023-03-15T06:46:40;88681.75;;;4.75;71.97
22649;BME280;11491;41.942;24.220;2023-03-15T06:49:07;88688.56;;;4.76;71.49
22649;BME280;11491;41.942;24.220;2023-03-15T06:51:33;88686.84;;;4.68;70.91
22649;BME280;11491;41.942;24.220;2023-03-15T06:54:00;88689.94;;;4.70;71.35
22649;BME280;11491;41.942;24.220;2023-03-15T06:56:27;88667.56;;;4.67;71.26
22649;BME280;11491;41.942;24.220;2023-03-15T06:58:54;88679.13;;;4.91;71.08
22649;BME280;11491;41.942;24.220;2023-03-15T07:01:21;88664.88;;;4.95;69.83
22649;BME280;11491;41.942;24.220;2023-03-15T07:03:49;88677.88;;;5.01;70.20
22649;BME280;11491;41.942;24.220;2023-03-15T07:06:15;88680.38;;;5.09;69.78
22649;BME280;11491;41.942;24.220;2023-03-15T07:08:42;88679.44;;;5.17;69.37
22649;BME280;11491;41.942;24.220;2023-03-15T07:11:09;88678.19;;;5.27;68.99
22649;BME280;11491;41.942;24.220;2023-03-15T07:13:36;88675.88;;;5.42;67.88
22649;BME280;11491;41.942;24.220;2023-03-15T07:16:03;88674.50;;;5.48;66.96
22649;BME280;11491;41.942;24.220;2023-03-15T07:18:31;88657.91;;;5.51;68.71
22649;BME280;11491;41.942;24.220;2023-03-15T07:21:01;88652.19;;;5.65;68.42
22649;BME280;11491;41.942;24.220;2023-03-15T07:23:29;88639.34;;;5.82;67.80
22649;BME280;11491;41.942;24.220;2023-03-15T07:25:56;88644.72;;;6.02;67.88
22649;BME280;11491;41.942;24.220;2023-03-15T07:28:24;88645.03;;;6.16;67.67
22649;BME280;11491;41.942;24.220;2023-03-15T07:30:52;88626.69;;;6.27;66.94
22649;BME280;11491;41.942;24.220;2023-03-15T07:33:19;88636.00;;;6.56;66.19
22649;BME280;11491;41.942;24.220;2023-03-15T07:35:47;88642.28;;;6.67;66.41
22649;BME280;11491;41.942;24.220;2023-03-15T07:38:16;88640.94;;;6.77;65.55
22649;BME280;11491;41.942;24.220;2023-03-15T07:40:43;88638.91;;;6.90;65.13
22649;BME280;11491;41.942;24.220;2023-03-15T07:43:09;88626.19;;;6.99;65.23
22649;BME280;11491;41.942;24.220;2023-03-15T07:45:36;88613.44;;;7.08;64.89
22649;BME280;11491;41.942;24.220;2023-03-15T07:48:03;88601.50;;;7.22;65.51
22649;BME280;11491;41.942;24.220;2023-03-15T07:50:30;88595.59;;;7.32;65.43
22649;BME280;11491;41.942;24.220;2023-03-15T07:52:57;88589.00;;;7.45;63.86
22649;BME280;11491;41.942;24.220;2023-03-15T07:55:25;88584.59;;;7.57;63.17
22649;BME280;11491;41.942;24.220;2023-03-15T07:57:52;88585.75;;;7.55;59.80
22649;BME280;11491;41.942;24.220;2023-03-15T08:00:19;88593.84;;;7.63;61.34
22649;BME280;11491;41.942;24.220;2023-03-15T08:02:47;88595.56;;;7.78;60.95
22649;BME280;11491;41.942;24.220;2023-03-15T08:05:14;88593.09;;;7.92;60.52
22649;BME280;11491;41.942;24.220;2023-03-15T08:07:43;88588.41;;;8.09;60.73
22649;BME280;11491;41.942;24.220;2023-03-15T08:10:10;88583.19;;;8.43;60.70
22649;BME280;11491;41.942;24.220;2023-03-15T08:12:39;88573.34;;;8.80;56.77
22649;BME280;11491;41.942;24.220;2023-03-15T08:15:08;88565.19;;;9.00;56.07
22649;BME280;11491;41.942;24.220;2023-03-15T08:17:35;88566.78;;;9.08;57.37
22649;BME280;11491;41.942;24.220;2023-03-15T08:20:02;88560.56;;;8.97;57.90
22649;BME280;11491;41.942;24.220;2023-03-15T08:22:30;88567.66;;;9.19;56.92
22649;BME280;11491;41.942;24.220;2023-03-15T08:24:56;88570.44;;;9.34;55.37
22649;BME280;11491;41.942;24.220;2023-03-15T08:27:23;88573.31;;;9.59;54.72
22649;BME280;11491;41.942;24.220;2023-03-15T08:29:51;88562.09;;;9.87;53.42
22649;BME280;11491;41.942;24.220;2023-03-15T08:32:19;88554.22;;;10.08;52.26
22649;BME280;11491;41.942;24.220;2023-03-15T08:34:46;88557.06;;;10.30;49.55
22649;BME280;11491;41.942;24.220;2023-03-15T08:37:13;88557.13;;;10.44;48.90
22649;BME280;11491;41.942;24.220;2023-03-15T08:39:39;88562.41;;;10.30;49.16
22649;BME280;11491;41.942;24.220;2023-03-15T08:42:06;88555.59;;;10.43;48.84
22649;BME280;11491;41.942;24.220;2023-03-15T08:44:33;88557.25;;;10.69;48.08
22649;BME280;11491;41.942;24.220;2023-03-15T08:47:02;88551.97;;;10.87;47.65
22649;BME280;11491;41.942;24.220;2023-03-15T08:49:29;88545.88;;;10.97;46.86
22649;BME280;11491;41.942;24.220;2023-03-15T08:51:56;88533.66;;;11.00;46.50
22649;BME280;11491;41.942;24.220;2023-03-15T08:54:23;88540.56;;;11.12;47.04
22649;BME280;11491;41.942;24.220;2023-03-15T08:56:51;88535.94;;;10.98;45.87
22649;BME280;11491;41.942;24.220;2023-03-15T08:59:18;88554.75;;;11.37;45.49
22649;BME280;11491;41.942;24.220;2023-03-15T09:01:45;88555.16;;;11.57;45.02
22649;BME280;11491;41.942;24.220;2023-03-15T09:04:13;88563.97;;;11.79;44.29
22649;BME280;11491;41.942;24.220;2023-03-15T09:06:40;88549.84;;;11.90;44.45
22649;BME280;11491;41.942;24.220;2023-03-15T09:09:06;88547.56;;;11.95;44.38
22649;BME280;11491;41.942;24.220;2023-03-15T09:11:33;88550.56;;;12.29;43.88
22649;BME280;11491;41.942;24.220;2023-03-15T09:14:00;88542.03;;;12.70;42.75
22649;BME280;11491;41.942;24.220;2023-03-15T09:16:27;88546.63;;;12.74;42.10
22649;BME280;11491;41.942;24.220;2023-03-15T09:18:54;88537.22;;;11.87;45.69
22649;BME280;11491;41.942;24.220;2023-03-15T09:21:22;88542.19;;;11.99;45.94
22649;BME280;11491;41.942;24.220;2023-03-15T09:23:49;88536.81;;;12.20;44.20
22649;BME280;11491;41.942;24.220;2023-03-15T09:26:16;88544.47;;;12.11;44.59
22649;BME280;11491;41.942;24.220;2023-03-15T09:28:42;88544.47;;;12.18;44.02
22649;BME280;11491;41.942;24.220;2023-03-15T09:31:09;88547.53;;;12.13;43.50
22649;BME280;11491;41.942;24.220;2023-03-15T09:33:36;88550.59;;;11.97;44.62
22649;BME280;11491;41.942;24.220;2023-03-15T09:36:03;88553.63;;;12.32;44.81
22649;BME280;11491;41.942;24.220;2023-03-15T09:38:32;88540.53;;;12.62;43.87
22649;BME280;11491;41.942;24.220;2023-03-15T09:40:59;88525.25;;;12.56;43.86
22649;BME280;11491;41.942;24.220;2023-03-15T09:43:42;88547.06;;;12.54;43.82
22649;BME280;11491;41.942;24.220;2023-03-15T09:46:24;88547.53;;;12.27;43.70
22649;BME280;11491;41.942;24.220;2023-03-15T09:48:55;88539.84;;;12.29;44.40
22649;BME280;11491;41.942;24.220;2023-03-15T09:51:32;88539.84;;;12.29;43.89
22649;BME280;11491;41.942;24.220;2023-03-15T09:54:03;88547.53;;;11.92;44.92
22649;BME280;11491;41.942;24.220;2023-03-15T09:56:38;88540.25;;;11.81;44.22
22649;BME280;11491;41.942;24.220;2023-03-15T09:59:05;88540.66;;;11.66;44.95
22649;BME280;11491;41.942;24.220;2023-03-15T10:01:35;88554.41;;;11.78;45.28
22649;BME280;11491;41.942;24.220;2023-03-15T10:04:08;88552.13;;;12.16;45.08
22649;BME280;11491;41.942;24.220;2023-03-15T10:06:46;88551.31;;;12.48;44.35
22649;BME280;11491;41.942;24.220;2023-03-15T10:10:13;88553.63;;;12.32;43.04
22649;BME280;11491;41.942;24.220;2023-03-15T10:12:58;88561.31;;;11.83;44.41
22649;BME280;11491;41.942;24.220;2023-03-15T10:15:37;88555.94;;;11.72;45.49
22649;BME280;11491;41.942;24.220;2023-03-15T10:18:19;88559.00;;;11.56;46.31
22649;BME280;11491;41.942;24.220;2023-03-15T10:20:57;88560.56;;;11.97;46.28
22649;BME280;11491;41.942;24.220;2023-03-15T10:23:29;88553.63;;;11.74;45.16
22649;BME280;11491;41.942;24.220;2023-03-15T10:26:03;88548.28;;;11.46;45.25
22649;BME280;11491;41.942;24.220;2023-03-15T10:28:32;88559.72;;;11.39;46.21
22649;BME280;11491;41.942;24.220;2023-03-15T10:31:10;88546.72;;;11.34;47.76
22649;BME280;11491;41.942;24.220;2023-03-15T10:33:42;88553.50;;;10.88;45.41
22649;BME280;11491;41.942;24.220;2023-03-15T10:36:14;88548.03;;;10.60;48.40
22649;BME280;11491;41.942;24.220;2023-03-15T10:38:42;88537.72;;;10.54;48.54
22649;BME280;11491;41.942;24.220;2023-03-15T10:41:12;88533.47;;;10.46;49.60
22649;BME280;11491;41.942;24.220;2023-03-15T10:43:40;88536.59;;;10.63;51.57
22649;BME280;11491;41.942;24.220;2023-03-15T10:46:09;88531.41;;;10.22;48.77
22649;BME280;11491;41.942;24.220;2023-03-15T10:48:38;88543.09;;;9.96;44.93
22649;BME280;11491;41.942;24.220;2023-03-15T10:51:12;88550.13;;;10.22;44.23
22649;BME280;11491;41.942;24.220;2023-03-15T10:53:50;88540.91;;;10.16;40.96
22649;BME280;11491;41.942;24.220;2023-03-15T10:56:22;88550.72;;;9.97;41.67
22649;BME280;11491;41.942;24.220;2023-03-15T10:58:51;88560.59;;;9.93;42.73
22649;BME280;11491;41.942;24.220;2023-03-15T11:01:23;88556.66;;;9.73;43.03
22649;BME280;11491;41.942;24.220;2023-03-15T11:04:00;88534.56;;;9.27;43.35
22649;BME280;11491;41.942;24.220;2023-03-15T11:06:28;88565.56;;;9.02;44.67
22649;BME280;11491;41.942;24.220;2023-03-15T11:09:07;88590.25;;;8.95;46.53
22649;BME280;11491;41.942;24.220;2023-03-15T11:11:50;88598.94;;;8.28;52.23
22649;BME280;11491;41.942;24.220;2023-03-15T11:14:18;88575.72;;;7.72;55.35
22649;BME280;11491;41.942;24.220;2023-03-15T11:16:46;88605.66;;;7.42;57.84
22649;BME280;11491;41.942;24.220;2023-03-15T11:19:16;88610.78;;;7.31;57.45
22649;BME280;11491;41.942;24.220;2023-03-15T11:21:44;88577.88;;;7.17;57.73
22649;BME280;11491;41.942;24.220;2023-03-15T11:24:20;88592.00;;;7.21;58.17
22649;BME280;11491;41.942;24.220;2023-03-15T11:26:51;88607.88;;;7.40;59.17
22649;BME280;11491;41.942;24.220;2023-03-15T11:29:22;88605.53;;;7.35;58.51
22649;BME280;11491;41.942;24.220;2023-03-15T11:31:49;88598.56;;;7.27;59.88
22649;BME280;11491;41.942;24.220;2023-03-15T11:34:24;88601.25;;;7.07;60.08
22649;BME280;11491;41.942;24.220;2023-03-15T11:36:55;88599.47;;;6.92;60.11
22649;BME280;11491;41.942;24.220;2023-03-15T11:39:28;88589.72;;;6.77;61.28
22649;BME280;11491;41.942;24.220;2023-03-15T11:42:04;88592.22;;;6.69;62.03
22649;BME280;11491;41.942;24.220;2023-03-15T11:44:36;88594.03;;;6.85;61.65
22649;BME280;11491;41.942;24.220;2023-03-15T11:47:09;88582.84;;;6.76;62.06
22649;BME280;11491;41.942;24.220;2023-03-15T11:49:43;88598.53;;;6.81;61.91
22649;BME280;11491;41.942;24.220;2023-03-15T11:52:14;88593.06;;;6.74;62.56
22649;BME280;11491;41.942;24.220;2023-03-15T11:54:42;88591.31;;;6.81;62.72
22649;BME280;11491;41.942;24.220;2023-03-15T11:57:35;88584.38;;;6.96;62.32
22649;BME280;11491;41.942;24.220;2023-03-15T12:03:30;88590.09;;;6.98;62.67
22649;BME280;11491;41.942;24.220;2023-03-15T12:06:02;88584.63;;;7.10;62.72
22649;BME280;11491;41.942;24.220;2023-03-15T12:08:47;88577.41;;;7.34;62.29
22649;BME280;11491;41.942;24.220;2023-03-15T12:11:37;88577.53;;;7.41;61.38
22649;BME280;11491;41.942;24.220;2023-03-15T12:14:21;88563.75;;;7.85;61.03
22649;BME280;11491;41.942;24.220;2023-03-15T12:16:51;88553.16;;;7.89;60.32
22649;BME280;11491;41.942;24.220;2023-03-15T12:19:24;88540.69;;;8.23;58.48
22649;BME280;11491;41.942;24.220;2023-03-15T12:21:54;88543.22;;;8.43;59.02
22649;BME280;11491;41.942;24.220;2023-03-15T12:24:24;88526.03;;;8.70;58.90
22649;BME280;11491;41.942;24.220;2023-03-15T12:26:59;88529.38;;;9.01;55.73
22649;BME280;11491;41.942;24.220;2023-03-15T12:29:29;88543.69;;;9.26;54.49
22649;BME280;11491;41.942;24.220;2023-03-15T12:32:03;88538.97;;;9.54;53.76
22649;BME280;11491;41.942;24.220;2023-03-15T12:34:41;88539.16;;;9.79;53.80
22649;BME280;11491;41.942;24.220;2023-03-15T12:37:14;88530.47;;;9.89;51.50
22649;BME280;11491;41.942;24.220;2023-03-15T12:39:45;88538.38;;;9.78;52.27
22649;BME280;11491;41.942;24.220;2023-03-15T12:45:36;88519.53;;;9.49;52.85
22649;BME280;11491;41.942;24.220;2023-03-15T12:48:23;88505.44;;;9.08;52.36
22649;BME280;11491;41.942;24.220;2023-03-15T12:51:02;88509.53;;;9.39;51.71
22649;BME280;11491;41.942;24.220;2023-03-15T12:53:40;88519.19;;;9.58;51.76
22649;BME280;11491;41.942;24.220;2023-03-15T12:56:25;88511.63;;;9.67;51.55
22649;BME280;11491;41.942;24.220;2023-03-15T12:59:00;88502.94;;;9.78;50.65
22649;BME280;11491;41.942;24.220;2023-03-15T13:01:30;88511.75;;;9.85;51.54
22649;BME280;11491;41.942;24.220;2023-03-15T13:03:58;88518.00;;;10.11;51.26
22649;BME280;11491;41.942;24.220;2023-03-15T13:09:27;88516.91;;;10.23;48.00
22649;BME280;11491;41.942;24.220;2023-03-15T13:12:04;88505.13;;;10.24;49.10
22649;BME280;11491;41.942;24.220;2023-03-15T13:14:41;88497.59;;;10.44;48.29
22649;BME280;11491;41.942;24.220;2023-03-15T13:17:19;88501.81;;;10.48;48.06
22649;BME280;11491;41.942;24.220;2023-03-15T13:19:55;88502.88;;;10.33;47.98